Time;durP1;ratioP1;P1;durP2;ratioP2;P2;SDS_P1;SDS_P2;PMS_P1;PMS_P2;Temp;Humidity;BMP_temperature;BMP_pressure;BME280_temperature;BME280_humidity;BME280_pressure;Samples;Min_cycle;Max_cycle;Signal;HPM_P1;HPM_P2
2022/02/04 00:24:13;;;;;;;7.32;6.55;;;;;;;5.24;100.00;97933.31;10348527;28;20046;-63
2022/02/04 00:29:21;;;;;;;7.13;6.43;;;;;;;5.24;100.00;97933.31;10349492;28;20462;-63
2022/02/04 00:34:27;;;;;;;7.18;5.90;;;;;;;5.20;100.00;97941.72;10349327;28;20042;-62
2022/02/04 00:39:40;;;;;;;6.75;5.70;;;;;;;5.16;100.00;97940.34;10347296;28;20046;-62
2022/02/04 00:44:43;;;;;;;6.30;5.70;;;;;;;5.11;100.00;97938.09;10352680;28;20065;-61
2022/02/04 00:50:16;;;;;;;5.00;4.50;;;;;;;5.09;100.00;97935.53;10351819;28;20061;-62
2022/02/04 00:55:27;;;;;;;2.85;2.63;;;;;;;5.11;100.00;97940.75;10352718;28;20468;-62
2022/02/04 01:27:36;;;;;;;1.80;1.70;;;;;;;5.09;100.00;97932.88;10237872;28;20099;-61
2022/02/04 01:32:39;;;;;;;1.80;1.70;;;;;;;5.02;100.00;97937.09;10312882;28;20056;-62
2022/02/04 01:37:43;;;;;;;1.50;1.40;;;;;;;5.05;100.00;97938.63;10345944;28;20061;-62
2022/02/04 01:42:47;;;;;;;1.48;1.38;;;;;;;5.02;100.00;97936.22;10345435;28;20156;-62
2022/02/04 01:47:55;;;;;;;1.42;1.33;;;;;;;5.00;100.00;97932.88;10347252;28;20132;-62
2022/02/04 01:53:01;;;;;;;1.20;1.10;;;;;;;5.05;100.00;97933.28;10345284;28;20524;-62
2022/02/04 01:58:05;;;;;;;1.45;1.35;;;;;;;5.12;100.00;97923.72;10357755;28;20042;-62
2022/02/04 02:03:10;;;;;;;1.30;1.20;;;;;;;5.00;100.00;97920.34;10350265;28;20048;-61
2022/02/04 02:08:15;;;;;;;1.13;1.08;;;;;;;5.02;100.00;97917.53;10351717;28;20104;-62
2022/02/04 02:13:30;;;;;;;1.08;1.08;;;;;;;5.01;100.00;97916.72;10353947;28;20104;-61
2022/02/04 02:45:49;;;;;;;1.20;1.10;;;;;;;4.97;100.00;97927.81;10440241;27;21119;-63
2022/02/04 02:56:39;;;;;;;1.15;1.05;;;;;;;4.92;100.00;97939.72;10412370;28;20064;-63
2022/02/04 03:01:47;;;;;;;1.15;1.05;;;;;;;4.97;100.00;97935.81;10439287;28;20121;-62
2022/02/04 03:06:50;;;;;;;1.00;1.00;;;;;;;4.93;100.00;97935.25;10432324;28;20033;-61
2022/02/04 03:11:54;;;;;;;1.15;1.08;;;;;;;4.99;100.00;97940.03;10437841;28;20042;-59
2022/02/04 03:17:00;;;;;;;1.08;1.05;;;;;;;4.94;100.00;97936.91;10433396;28;20053;-59
2022/02/04 03:22:08;;;;;;;1.40;1.30;;;;;;;4.94;100.00;97937.78;10431482;28;20416;-62
2022/02/04 03:27:13;;;;;;;1.45;1.35;;;;;;;4.96;100.00;97944.81;10428438;28;20056;-57
2022/02/04 03:32:20;;;;;;;1.35;1.20;;;;;;;4.92;100.00;97955.75;10434720;28;20051;-61
2022/02/04 03:37:23;;;;;;;1.63;1.50;;;;;;;4.91;100.00;97943.38;10431807;28;20049;-60
2022/02/04 03:42:26;;;;;;;1.45;1.35;;;;;;;4.87;100.00;97952.66;10430478;28;20087;-61
2022/02/04 03:47:31;;;;;;;1.58;1.30;;;;;;;4.89;100.00;97949.84;10431168;28;20049;-61
2022/02/04 03:52:34;;;;;;;1.55;1.42;;;;;;;4.86;100.00;97958.97;10428892;28;20449;-62
2022/02/04 03:57:37;;;;;;;2.58;1.70;;;;;;;4.85;100.00;97961.75;10402970;28;20573;-60
2022/02/04 04:02:42;;;;;;;2.58;1.98;;;;;;;4.85;100.00;97954.63;10412980;28;20681;-62
2022/02/04 04:07:48;;;;;;;1.65;1.55;;;;;;;4.76;100.00;97952.78;10412552;28;20476;-61
2022/02/04 04:12:53;;;;;;;1.70;1.60;;;;;;;4.69;100.00;97956.94;10405826;28;20060;-62
2022/02/04 04:17:58;;;;;;;1.85;1.75;;;;;;;4.60;100.00;97945.25;10421084;28;20303;-63
2022/02/04 04:23:02;;;;;;;2.00;1.80;;;;;;;4.53;100.00;97960.13;10407053;28;20038;-61
2022/02/04 04:28:06;;;;;;;1.73;1.63;;;;;;;4.50;100.00;97960.38;10411234;28;20049;-62
2022/02/04 04:33:26;;;;;;;3.03;1.95;;;;;;;4.45;100.00;97964.31;10408591;28;20054;-63
2022/02/04 04:38:35;;;;;;;1.90;1.70;;;;;;;4.43;100.00;97970.75;10403971;28;20055;-63
2022/02/04 05:26:59;;;;;;;2.30;2.10;;;;;;;4.32;100.00;97953.84;10426297;28;20046;-62
2022/02/04 05:32:01;;;;;;;2.38;2.17;;;;;;;4.34;100.00;97953.75;10401628;28;20116;-62
2022/02/04 05:37:07;;;;;;;2.55;2.35;;;;;;;4.32;100.00;97959.19;10399868;28;20041;-61
2022/02/04 05:42:18;;;;;;;2.50;2.30;;;;;;;4.29;100.00;97954.13;10399746;28;20076;-62
2022/02/04 05:47:23;;;;;;;2.28;2.05;;;;;;;4.27;100.00;97953.44;10397150;28;20092;-61
2022/02/04 05:52:31;;;;;;;2.20;2.00;;;;;;;4.28;100.00;97955.13;10412744;28;20052;-62
2022/02/04 05:57:52;;;;;;;2.40;2.20;;;;;;;4.30;100.00;97955.81;10419926;28;20055;-62
2022/02/04 06:03:13;;;;;;;2.60;2.40;;;;;;;4.28;100.00;97964.91;10400226;28;20050;-60
2022/02/04 06:08:38;;;;;;;2.85;2.65;;;;;;;4.29;100.00;97956.78;10401037;28;20101;-62
2022/02/04 06:14:09;;;;;;;3.13;2.90;;;;;;;4.25;100.00;97966.03;10422584;28;20115;-60
2022/02/04 06:24:26;;;;;;;3.45;3.15;;;;;;;4.23;100.00;97970.66;10403774;28;20043;-62
2022/02/04 06:29:29;;;;;;;3.97;3.55;;;;;;;4.20;100.00;97970.09;10400968;28;20049;-61
2022/02/04 06:34:32;;;;;;;3.40;3.10;;;;;;;4.16;100.00;97985.50;10399214;28;20401;-62
2022/02/04 06:39:37;;;;;;;3.28;2.80;;;;;;;4.15;100.00;97979.31;10400647;28;20084;-65
2022/02/04 06:44:40;;;;;;;3.15;2.90;;;;;;;4.09;100.00;97997.66;10403984;28;20445;-62
2022/02/04 06:49:43;;;;;;;3.67;3.38;;;;;;;4.04;100.00;98002.53;10403288;28;20055;-60
2022/02/04 06:54:50;;;;;;;3.22;2.92;;;;;;;3.99;100.00;97992.28;10398976;28;20064;-61
2022/02/04 06:59:53;;;;;;;3.15;2.85;;;;;;;3.98;100.00;97991.41;10403727;28;20044;-62
2022/02/04 07:04:56;;;;;;;3.35;3.05;;;;;;;3.99;100.00;97995.78;10401526;28;20051;-59
2022/02/04 07:10:10;;;;;;;3.10;2.80;;;;;;;3.95;100.00;98005.00;10400473;28;20573;-66
2022/02/04 07:20:34;;;;;;;2.88;2.63;;;;;;;3.98;100.00;98004.75;10412715;28;20045;-61
2022/02/04 07:25:38;;;;;;;3.20;2.95;;;;;;;4.00;100.00;98010.78;10401120;28;20048;-59
2022/02/04 07:30:43;;;;;;;3.80;3.20;;;;;;;4.03;100.00;98006.19;10402412;28;20124;-54
2022/02/04 07:41:08;;;;;;;2.60;2.40;;;;;;;4.04;100.00;98007.88;10413667;28;20491;-64
2022/02/04 07:46:13;;;;;;;1.90;1.80;;;;;;;4.07;100.00;98004.94;10424866;28;20037;-64
2022/02/04 07:51:16;;;;;;;1.92;1.60;;;;;;;4.09;100.00;98011.84;10418813;28;20410;-58
2022/02/04 07:56:23;;;;;;;2.97;2.40;;;;;;;4.11;100.00;98001.03;10427620;28;20405;-62
2022/02/04 08:01:30;;;;;;;3.00;2.75;;;;;;;4.10;100.00;97997.53;10438985;28;20053;-61
2022/02/04 08:06:39;;;;;;;4.82;2.78;;;;;;;4.11;100.00;97998.38;10428188;28;20041;-60
2022/02/04 08:12:07;;;;;;;3.10;2.80;;;;;;;4.10;100.00;97994.00;10425950;28;20441;-62
2022/02/04 08:17:29;;;;;;;2.53;2.33;;;;;;;4.06;100.00;97984.59;10451998;28;20049;-62
2022/02/04 08:22:53;;;;;;;;;;;;;;;4.05;100.00;97982.91;10449422;28;20417;-63
2022/02/04 08:38:50;;;;;;;3.00;2.70;;;;;;;4.15;100.00;97991.81;10386696;28;20061;-63
2022/02/04 08:49:33;;;;;;;;;;;;;;;4.20;100.00;97986.91;10407999;28;20056;-62
2022/02/04 08:54:40;;;;;;;4.47;3.20;;;;;;;4.29;100.00;97979.94;10395996;28;19934;-63
2022/02/04 08:59:56;;;;;;;2.80;2.60;;;;;;;4.30;100.00;97981.63;10401704;28;20053;-61
2022/02/04 09:05:30;;;;;;;3.38;3.05;;;;;;;4.45;100.00;97971.47;10400435;28;20044;-64
2022/02/04 09:10:36;;;;;;;2.28;2.08;;;;;;;4.54;100.00;97965.31;10399788;28;20053;-60
2022/02/04 09:21:24;;;;;;;1.90;1.80;;;;;;;4.78;100.00;97948.13;10401184;28;20136;-57
2022/02/04 09:26:27;;;;;;;1.90;1.80;;;;;;;4.83;100.00;97935.22;10397002;28;20052;-57
2022/02/04 09:31:32;;;;;;;1.50;1.40;;;;;;;4.97;100.00;97941.16;10403486;28;20091;-62
2022/02/04 09:36:35;;;;;;;1.33;1.17;;;;;;;5.16;100.00;97935.84;10410968;28;20577;-60
2022/02/04 09:41:38;;;;;;;1.60;1.48;;;;;;;5.39;100.00;97936.44;10412519;28;20053;-59
2022/02/04 09:46:43;;;;;;;1.30;1.20;;;;;;;5.47;100.00;97922.34;10399731;28;20121;-60
2022/02/04 10:08:14;;;;;;;1.60;1.50;;;;;;;5.57;100.00;97914.31;10395650;28;20061;-59
2022/02/04 10:18:48;;;;;;;;;;;;;;;5.64;100.00;97915.47;10400042;28;20057;-62
2022/02/04 10:23:54;;;;;;;1.30;1.20;;;;;;;5.78;100.00;97902.63;10397324;28;20011;-59
2022/02/04 10:28:58;;;;;;;1.00;0.90;;;;;;;5.87;100.00;97896.44;10399422;28;20409;-64
2022/02/04 10:34:06;;;;;;;0.80;0.80;;;;;;;5.97;100.00;97888.38;10399455;28;20041;-59
2022/02/04 10:39:49;;;;;;;1.50;0.82;;;;;;;5.97;100.00;97875.84;10402077;28;20455;-58
2022/02/04 10:45:14;;;;;;;0.50;0.50;;;;;;;6.07;100.00;97883.84;10399047;28;20061;-58
2022/02/04 10:56:26;;;;;;;0.40;0.40;;;;;;;6.13;100.00;97874.41;10396868;28;20094;-57
2022/02/04 11:01:35;;;;;;;0.50;0.50;;;;;;;6.14;100.00;97858.22;10397125;28;20703;-60
2022/02/04 11:06:55;;;;;;;1.65;0.50;;;;;;;6.15;100.00;97849.22;10405362;28;20061;-61
2022/02/04 11:12:16;;;;;;;0.80;0.60;;;;;;;6.19;100.00;97848.91;10401115;28;20123;-60
2022/02/04 11:55:33;;;;;;;1.42;0.40;;;;;;;6.43;100.00;97800.22;10365924;28;20063;-60
2022/02/04 12:00:40;;;;;;;0.40;0.40;;;;;;;6.50;100.00;97784.41;10401251;28;20087;-61
2022/02/04 12:05:49;;;;;;;0.40;0.40;;;;;;;6.54;100.00;97786.63;10405710;28;20417;-60
2022/02/04 12:10:56;;;;;;;0.40;0.40;;;;;;;6.55;100.00;97782.09;10402752;28;20409;-62
2022/02/04 12:16:06;;;;;;;0.40;0.40;;;;;;;6.52;100.00;97766.38;10397815;28;20061;-60
2022/02/04 12:21:12;;;;;;;0.50;0.50;;;;;;;6.47;100.00;97780.16;10402054;28;20049;-62
2022/02/04 12:26:23;;;;;;;0.30;0.30;;;;;;;6.64;100.00;97754.44;10399806;28;20040;-62
2022/02/04 12:31:30;;;;;;;0.98;0.45;;;;;;;6.71;100.00;97738.59;10402330;28;20049;-60
2022/02/04 12:36:35;;;;;;;0.40;0.40;;;;;;;6.83;100.00;97733.84;10399649;28;20049;-60
2022/02/04 12:41:43;;;;;;;0.30;0.30;;;;;;;7.04;100.00;97712.09;10399628;28;20528;-62
2022/02/04 12:46:50;;;;;;;0.20;0.20;;;;;;;7.27;100.00;97728.47;10397771;28;20051;-58
2022/02/04 12:52:00;;;;;;;0.80;0.20;;;;;;;7.35;100.00;97717.81;10396256;28;20100;-60
2022/02/04 12:57:32;;;;;;;0.20;0.20;;;;;;;7.33;100.00;97705.56;10396340;28;20573;-61
2022/02/04 13:08:08;;;;;;;0.20;0.20;;;;;;;7.23;100.00;97690.47;10394105;28;20045;-61
2022/02/04 13:13:40;;;;;;;0.22;0.20;;;;;;;7.15;100.00;97676.16;10397290;28;20112;-59
2022/02/04 13:18:44;;;;;;;0.10;0.10;;;;;;;7.15;100.00;97660.09;10397640;28;20425;-60
2022/02/04 13:23:51;;;;;;;0.30;0.30;;;;;;;7.23;100.00;97657.47;10407190;28;20077;-58
2022/02/04 13:29:06;;;;;;;0.25;0.20;;;;;;;7.22;100.00;97634.38;10399614;28;20045;-58
2022/02/04 13:34:13;;;;;;;0.20;0.20;;;;;;;7.27;100.00;97624.00;10395543;28;20505;-59
2022/02/04 13:39:24;;;;;;;0.20;0.20;;;;;;;7.15;100.00;97623.44;10396179;28;20399;-59
2022/02/04 13:44:40;;;;;;;0.30;0.30;;;;;;;7.17;100.00;97620.59;10393550;28;20050;-57
2022/02/04 13:55:32;;;;;;;1.75;0.40;;;;;;;7.01;100.00;97614.16;10379333;28;20778;-60
2022/02/04 14:00:52;;;;;;;0.65;0.30;;;;;;;6.92;100.00;97605.25;10400252;28;20405;-56
2022/02/04 14:06:02;;;;;;;0.40;0.40;;;;;;;6.96;100.00;97597.72;10393815;28;20128;-62
2022/02/04 14:11:09;;;;;;;0.40;0.40;;;;;;;6.84;100.00;97583.75;10396792;28;20049;-61
2022/02/04 14:16:38;;;;;;;0.63;0.60;;;;;;;6.85;100.00;97579.25;10399058;28;20437;-58
2022/02/04 14:21:42;;;;;;;1.20;0.40;;;;;;;6.84;100.00;97582.94;10396531;28;20041;-60
2022/02/04 14:26:52;;;;;;;0.40;0.40;;;;;;;6.83;100.00;97570.53;10392836;28;20045;-63
2022/02/04 14:32:02;;;;;;;0.60;0.60;;;;;;;6.84;100.00;97569.53;10394796;28;20402;-61
2022/02/04 14:37:28;;;;;;;0.88;0.50;;;;;;;6.77;100.00;97572.00;10397750;28;20026;-61
2022/02/04 14:53:22;;;;;;;0.40;0.40;;;;;;;6.56;100.00;97537.59;10396275;28;20054;-61
2022/02/04 15:04:01;;;;;;;0.40;0.40;;;;;;;6.42;100.00;97523.78;10399862;28;19921;-63
2022/02/04 15:09:07;;;;;;;0.40;0.40;;;;;;;6.27;100.00;97530.72;10407851;28;20033;-64
2022/02/04 15:14:11;;;;;;;0.50;0.50;;;;;;;6.25;100.00;97546.06;10410879;28;20060;-62
2022/02/04 15:19:17;;;;;;;0.50;0.50;;;;;;;6.17;100.00;97528.94;10402072;28;20522;-61
2022/02/04 15:24:20;;;;;;;0.80;0.80;;;;;;;6.16;100.00;97521.94;10396889;28;22119;-60
2022/02/04 15:29:29;;;;;;;0.82;0.82;;;;;;;6.15;100.00;97514.91;10395968;28;20057;-60
2022/02/04 15:34:34;;;;;;;0.90;0.80;;;;;;;6.15;100.00;97511.38;10390448;28;20096;-62
2022/02/04 15:39:39;;;;;;;0.60;0.60;;;;;;;6.14;100.00;97507.03;10399821;28;20405;-63
2022/02/04 15:44:59;;;;;;;0.45;0.45;;;;;;;6.10;100.00;97501.16;10393035;28;20442;-63
2022/02/04 15:50:24;;;;;;;0.40;0.40;;;;;;;6.09;100.00;97488.78;10404601;28;20136;-63
2022/02/04 16:01:24;;;;;;;0.60;0.40;;;;;;;6.05;100.00;97482.09;10305893;28;20054;-62
2022/02/04 16:06:29;;;;;;;1.05;0.50;;;;;;;6.05;100.00;97467.88;10398851;28;20051;-64
2022/02/04 16:11:50;;;;;;;0.63;0.40;;;;;;;6.03;100.00;97462.69;10408990;28;20044;-62
2022/02/04 16:16:57;;;;;;;0.40;0.40;;;;;;;6.05;100.00;97475.88;10412615;28;20516;-59
2022/02/04 16:32:44;;;;;;;0.40;0.40;;;;;;;5.97;100.00;97457.91;10401618;28;20053;-60
2022/02/04 16:38:01;;;;;;;0.20;0.20;;;;;;;5.90;100.00;97447.00;10406237;28;20128;-59
2022/02/04 16:43:04;;;;;;;0.30;0.20;;;;;;;5.82;100.00;97442.44;10405187;28;20366;-63
2022/02/04 16:48:08;;;;;;;0.30;0.30;;;;;;;5.85;100.00;97434.09;10396588;28;20285;-65
2022/02/04 16:53:18;;;;;;;0.30;0.30;;;;;;;5.78;100.00;97422.38;10398858;28;20049;-63
2022/02/04 16:58:21;;;;;;;0.30;0.30;;;;;;;5.73;100.00;97424.66;10398553;28;20451;-59
2022/02/04 17:03:25;;;;;;;0.20;0.20;;;;;;;5.75;100.00;97412.00;10406385;28;20096;-60
2022/02/04 17:08:44;;;;;;;0.25;0.25;;;;;;;5.69;100.00;97410.78;10415923;28;20141;-60
2022/02/04 17:14:06;;;;;;;0.30;0.30;;;;;;;5.69;100.00;97423.31;10412259;28;20053;-62
2022/02/04 17:19:10;;;;;;;0.20;0.20;;;;;;;5.72;100.00;97417.63;10413264;28;20100;-63
2022/02/04 17:24:15;;;;;;;0.30;0.30;;;;;;;5.77;100.00;97407.34;10402929;28;20356;-62
2022/02/04 17:29:18;;;;;;;0.20;0.20;;;;;;;5.77;100.00;97441.22;10396485;28;20453;-59
2022/02/04 17:34:21;;;;;;;0.20;0.20;;;;;;;5.76;100.00;97408.31;10396560;28;20037;-60
2022/02/04 17:39:27;;;;;;;0.20;0.20;;;;;;;5.82;100.00;97402.34;10394839;28;20049;-62
2022/02/04 17:44:30;;;;;;;0.20;0.20;;;;;;;5.78;100.00;97401.00;10406937;28;20088;-62
2022/02/04 17:49:42;;;;;;;0.30;0.30;;;;;;;5.83;100.00;97403.19;10414234;28;20041;-61
2022/02/04 17:54:54;;;;;;;0.22;0.20;;;;;;;5.82;100.00;97391.66;10410499;28;20052;-56
2022/02/04 18:00:20;;;;;;;0.30;0.30;;;;;;;5.79;100.00;97383.97;10405835;28;20156;-60
2022/02/04 18:10:42;;;;;;;0.38;0.30;;;;;;;5.62;100.00;97366.97;10398600;28;20640;-60
2022/02/04 18:15:46;;;;;;;0.30;0.20;;;;;;;5.59;100.00;97353.06;10403349;28;20153;-62
2022/02/04 18:20:49;;;;;;;0.30;0.30;;;;;;;5.56;100.00;97359.56;10404190;28;20486;-63
2022/02/04 18:25:54;;;;;;;0.30;0.30;;;;;;;5.46;100.00;97349.00;10420876;28;20044;-60
2022/02/04 18:30:57;;;;;;;0.20;0.20;;;;;;;5.42;100.00;97358.31;10401922;28;20049;-63
2022/02/04 18:36:02;;;;;;;0.25;0.25;;;;;;;5.34;100.00;97360.94;10405972;28;20056;-64
2022/02/04 18:52:07;;;;;;;0.30;0.30;;;;;;;5.19;100.00;97358.78;10385319;28;20061;-62
2022/02/04 18:57:18;;;;;;;0.45;0.40;;;;;;;5.25;100.00;97355.50;10410534;28;20040;-62
2022/02/04 19:02:23;;;;;;;0.30;0.30;;;;;;;5.38;100.00;97333.75;10421492;28;20099;-62
2022/02/04 19:07:41;;;;;;;0.30;0.30;;;;;;;5.31;100.00;97345.19;10442389;28;20057;-61
2022/02/04 19:12:50;;;;;;;0.50;0.40;;;;;;;5.35;100.00;97341.25;10451670;28;20049;-57
2022/02/04 19:17:57;;;;;;;0.55;0.30;;;;;;;5.36;100.00;97345.56;10463648;28;20057;-61
2022/02/04 19:23:04;;;;;;;0.30;0.30;;;;;;;5.45;100.00;97341.13;10420130;28;20478;-63
2022/02/04 19:28:11;;;;;;;0.30;0.30;;;;;;;5.47;100.00;97331.94;10408607;28;20041;-65
2022/02/04 19:33:16;;;;;;;0.32;0.32;;;;;;;5.55;100.00;97321.34;10418523;28;20444;-63
2022/02/04 19:38:20;;;;;;;0.55;0.40;;;;;;;5.63;100.00;97323.25;10404500;28;20045;-63
2022/02/04 19:43:26;;;;;;;0.32;0.30;;;;;;;5.67;100.00;97329.94;10410032;28;20206;-62
2022/02/04 19:48:33;;;;;;;0.50;0.40;;;;;;;5.70;100.00;97315.44;10402442;28;20053;-63
2022/02/04 19:53:59;;;;;;;0.85;0.40;;;;;;;5.71;100.00;97325.09;10399865;28;20041;-64
2022/02/04 20:26:14;;;;;;;0.20;0.20;;;;;;;5.69;100.00;97375.22;10301583;28;20057;-63
2022/02/04 20:31:18;;;;;;;0.30;0.30;;;;;;;5.68;100.00;97368.19;10379910;28;20104;-63
2022/02/04 20:36:21;;;;;;;0.30;0.30;;;;;;;5.69;100.00;97373.38;10398202;28;20049;-63
2022/02/04 20:41:30;;;;;;;0.55;0.22;;;;;;;5.70;100.00;97406.28;10396483;28;20417;-61
2022/02/04 20:46:38;;;;;;;1.65;0.30;;;;;;;5.76;100.00;97402.97;10397682;28;20060;-63
2022/02/04 20:51:41;;;;;;;0.75;0.30;;;;;;;5.71;100.00;97413.28;10393185;28;20048;-63
2022/02/04 20:56:44;;;;;;;0.22;0.22;;;;;;;5.71;100.00;97416.81;10395296;28;20060;-63
2022/02/04 21:01:51;;;;;;;0.30;0.30;;;;;;;5.68;100.00;97421.63;10399719;28;20198;-62
2022/02/04 21:07:01;;;;;;;0.35;0.28;;;;;;;5.56;100.00;97461.09;10415554;28;20059;-63
2022/02/04 21:17:33;;;;;;;0.20;0.20;;;;;;;4.44;100.00;97567.88;10394736;28;20079;-65
2022/02/04 21:22:37;;;;;;;0.77;0.30;;;;;;;4.39;100.00;97553.31;10394992;28;20045;-64
2022/02/04 21:27:42;;;;;;;0.45;0.25;;;;;;;4.28;100.00;97632.47;10407055;28;20126;-66
2022/02/04 21:32:52;;;;;;;0.30;0.30;;;;;;;4.25;100.00;97610.56;10394106;28;20049;-66
2022/02/04 21:37:55;;;;;;;0.30;0.30;;;;;;;4.08;100.00;97657.41;10394079;28;20084;-66
2022/02/04 21:43:01;;;;;;;0.30;0.30;;;;;;;3.94;100.00;97640.03;10392066;28;20500;-67
2022/02/04 21:48:06;;;;;;;0.20;0.20;;;;;;;3.78;100.00;97645.91;10390437;28;20038;-66
2022/02/04 21:53:10;;;;;;;0.30;0.30;;;;;;;3.51;100.00;97666.00;10392806;28;20037;-65
2022/02/04 21:58:13;;;;;;;0.65;0.20;;;;;;;3.36;100.00;97722.28;10390984;28;20049;-65
2022/02/04 22:03:18;;;;;;;0.20;0.20;;;;;;;3.30;100.00;97730.81;10392622;28;20145;-66
2022/02/04 22:08:34;;;;;;;0.20;0.20;;;;;;;3.14;100.00;97719.78;10392590;28;20754;-66
2022/02/04 22:13:51;;;;;;;0.43;0.30;;;;;;;3.00;100.00;97732.44;10393391;28;20088;-63
2022/02/04 22:24:16;;;;;;;0.38;0.30;;;;;;;2.85;100.00;97771.84;10392019;28;20124;-66
2022/02/04 22:29:21;;;;;;;0.50;0.30;;;;;;;2.85;100.00;97769.19;10389045;28;20046;-65
2022/02/04 22:34:37;;;;;;;0.52;0.30;;;;;;;2.88;100.00;97786.72;10391343;28;20482;-65
2022/02/04 22:40:05;;;;;;;0.40;0.30;;;;;;;2.82;100.00;97798.72;10387682;28;20518;-66
2022/02/04 22:50:38;;;;;;;0.63;0.43;;;;;;;2.79;100.00;97820.25;10391371;28;20053;-65
2022/02/04 22:55:59;;;;;;;1.83;0.50;;;;;;;2.82;100.00;97822.66;10393367;28;20049;-64
2022/02/04 23:01:03;;;;;;;0.35;0.35;;;;;;;2.84;100.00;97870.41;10411663;22;20437;-57
2022/02/04 23:06:11;;;;;;;1.40;0.38;;;;;;;2.86;100.00;97865.81;10389863;28;20051;-52
2022/02/04 23:11:14;;;;;;;0.77;0.40;;;;;;;2.85;100.00;97853.47;10398191;28;20037;-53
2022/02/04 23:16:21;;;;;;;1.42;0.43;;;;;;;2.80;100.00;97867.16;10400898;28;20448;-54
2022/02/04 23:21:33;;;;;;;1.33;0.47;;;;;;;2.82;100.00;97877.69;10401740;28;20041;-54
2022/02/04 23:26:41;;;;;;;2.85;0.68;;;;;;;2.76;100.00;97916.25;10398578;28;20087;-54
2022/02/04 23:32:14;;;;;;;2.08;0.60;;;;;;;2.67;100.00;97907.19;10398331;28;20045;-55
2022/02/04 23:53:21;;;;;;;1.58;0.50;;;;;;;2.60;100.00;97954.72;10400479;28;20455;-56
2022/02/04 23:58:25;;;;;;;3.42;0.73;;;;;;;2.58;100.00;97955.81;10397358;28;20490;-56
